Time;durP1;ratioP1;P1;durP2;ratioP2;P2;SDS_P1;SDS_P2;PMS_P1;PMS_P2;Temp;Humidity;BMP_temperature;BMP_pressure;BME280_temperature;BME280_humidity;BME280_pressure;Samples;Min_cycle;Max_cycle;Signal;HPM_P1;HPM_P2
2023/08/07 00:00:19;;;;;;;2.77;2.57;;;;;;;;;;5094713;28;21015;-69
2023/08/07 00:02:46;;;;;;;2.33;2.13;;;;;;;;;;5094495;28;20476;-69
2023/08/07 00:05:13;;;;;;;2.43;2.23;;;;;;;;;;5094515;28;20536;-69
2023/08/07 00:07:40;;;;;;;3.40;2.53;;;;;;;;;;5094376;28;20534;-69
2023/08/07 00:10:07;;;;;;;3.93;2.50;;;;;;;;;;5094308;28;20452;-68
2023/08/07 00:12:34;;;;;;;2.30;2.10;;;;;;;;;;5094154;28;20535;-69
2023/08/07 00:15:02;;;;;;;2.57;2.17;;;;;;;;;;5094322;28;20445;-69
2023/08/07 00:17:29;;;;;;;2.30;2.20;;;;;;;;;;5093963;28;20814;-69
2023/08/07 00:19:56;;;;;;;2.80;2.00;;;;;;;;;;5094256;28;20856;-69
2023/08/07 00:22:25;;;;;;;2.53;2.10;;;;;;;;;;5094062;28;20487;-69
2023/08/07 00:24:51;;;;;;;2.37;2.17;;;;;;;;;;5093920;28;20443;-69
2023/08/07 00:27:18;;;;;;;2.10;1.90;;;;;;;;;;5094143;28;20538;-69
2023/08/07 00:29:45;;;;;;;2.70;2.40;;;;;;;;;;5094134;28;20514;-68
2023/08/07 00:32:13;;;;;;;2.47;2.27;;;;;;;;;;5094013;28;20535;-69
2023/08/07 00:34:40;;;;;;;2.80;2.60;;;;;;;;;;5093857;28;20488;-69
2023/08/07 00:37:09;;;;;;;4.03;2.30;;;;;;;;;;5093802;28;20536;-68
2023/08/07 00:39:36;;;;;;;3.30;2.00;;;;;;;;;;5094226;28;20442;-69
2023/08/07 00:42:03;;;;;;;5.10;2.57;;;;;;;;;;5093816;28;20541;-69
2023/08/07 00:44:29;;;;;;;2.50;2.30;;;;;;;;;;5093756;28;20481;-68
2023/08/07 00:46:56;;;;;;;2.63;2.40;;;;;;;;;;5093730;28;20854;-69
2023/08/07 00:49:25;;;;;;;2.40;2.20;;;;;;;;;;5093555;28;20442;-69
2023/08/07 00:51:52;;;;;;;4.53;2.83;;;;;;;;;;5093480;28;20531;-69
2023/08/07 00:54:20;;;;;;;2.20;2.00;;;;;;;;;;5093702;28;20454;-69
2023/08/07 00:56:47;;;;;;;4.40;2.60;;;;;;;;;;5093352;28;20552;-69
2023/08/07 00:59:14;;;;;;;2.40;2.20;;;;;;;;;;5093579;28;20527;-69
2023/08/07 01:01:41;;;;;;;2.40;2.20;;;;;;;;;;5093488;28;20477;-69
2023/08/07 01:04:08;;;;;;;2.40;2.20;;;;;;;;;;5093321;28;20571;-69
2023/08/07 01:06:38;;;;;;;2.40;2.30;;;;;;;;;;5093256;28;20452;-69
2023/08/07 01:09:07;;;;;;;2.83;2.37;;;;;;;;;;5093458;28;20441;-69
2023/08/07 01:11:36;;;;;;;5.00;2.43;;;;;;;;;;5093591;28;20528;-69
2023/08/07 01:14:07;;;;;;;2.27;2.00;;;;;;;;;;5093329;28;20447;-69
2023/08/07 01:16:37;;;;;;;2.23;2.00;;;;;;;;;;5093158;28;21035;-69
2023/08/07 01:19:06;;;;;;;2.47;1.97;;;;;;;;;;5093086;28;20448;-69
2023/08/07 01:21:33;;;;;;;2.40;2.20;;;;;;;;;;5093304;28;20861;-69
2023/08/07 01:24:02;;;;;;;3.50;3.00;;;;;;;;;;5093186;28;20494;-69
2023/08/07 01:26:28;;;;;;;2.53;2.43;;;;;;;;;;5093195;28;20540;-69
2023/08/07 01:29:13;;;;;;;2.70;2.37;;;;;;;;;;5092309;28;21000;-69
2023/08/07 01:31:41;;;;;;;4.70;2.57;;;;;;;;;;5093268;28;20531;-69
2023/08/07 01:34:09;;;;;;;3.23;2.63;;;;;;;;;;5092985;28;20555;-69
2023/08/07 01:36:36;;;;;;;2.30;2.20;;;;;;;;;;5093124;28;20444;-69
2023/08/07 01:39:06;;;;;;;3.20;2.50;;;;;;;;;;5093064;28;20528;-69
2023/08/07 01:41:33;;;;;;;2.60;2.40;;;;;;;;;;5092985;28;21291;-69
2023/08/07 01:44:01;;;;;;;2.53;2.33;;;;;;;;;;5092829;28;20481;-69
2023/08/07 01:46:27;;;;;;;2.97;2.70;;;;;;;;;;5093055;28;20445;-69
2023/08/07 01:48:54;;;;;;;2.47;2.37;;;;;;;;;;5092985;28;20541;-69
2023/08/07 01:51:21;;;;;;;3.60;2.67;;;;;;;;;;5093021;28;21126;-69
2023/08/07 01:53:48;;;;;;;2.83;2.53;;;;;;;;;;5092851;28;20450;-69
2023/08/07 01:56:17;;;;;;;3.60;3.30;;;;;;;;;;5092575;28;20490;-69
2023/08/07 01:58:44;;;;;;;3.30;3.00;;;;;;;;;;5092735;28;20506;-69
2023/08/07 02:01:10;;;;;;;2.77;2.57;;;;;;;;;;5092892;28;20536;-69
2023/08/07 02:03:37;;;;;;;2.70;2.50;;;;;;;;;;5092786;28;20491;-69
2023/08/07 02:06:04;;;;;;;5.83;3.10;;;;;;;;;;5093073;28;20536;-69
2023/08/07 02:08:31;;;;;;;2.97;2.50;;;;;;;;;;5092715;28;20471;-69
2023/08/07 02:11:01;;;;;;;2.90;2.20;;;;;;;;;;5092566;28;20983;-69
2023/08/07 02:13:29;;;;;;;3.23;2.23;;;;;;;;;;5092559;28;21009;-69
2023/08/07 02:15:56;;;;;;;4.20;2.50;;;;;;;;;;5092752;28;20891;-69
2023/08/07 02:18:23;;;;;;;5.93;3.73;;;;;;;;;;5092719;28;20548;-69
2023/08/07 02:20:50;;;;;;;3.73;3.40;;;;;;;;;;5092633;28;20447;-69
2023/08/07 02:23:16;;;;;;;3.73;3.40;;;;;;;;;;5092487;28;20487;-69
2023/08/07 02:25:45;;;;;;;3.60;3.30;;;;;;;;;;5092523;28;20451;-69
2023/08/07 02:28:12;;;;;;;3.37;3.07;;;;;;;;;;5092654;28;20887;-69
2023/08/07 02:30:40;;;;;;;5.50;3.10;;;;;;;;;;5092561;28;20536;-69
2023/08/07 02:33:07;;;;;;;3.40;2.87;;;;;;;;;;5092519;28;20452;-69
2023/08/07 02:35:34;;;;;;;3.60;3.30;;;;;;;;;;5092731;28;20443;-69
2023/08/07 02:38:01;;;;;;;3.80;3.10;;;;;;;;;;5092391;28;20927;-69
2023/08/07 02:40:27;;;;;;;3.93;3.10;;;;;;;;;;5094295;28;20451;-69
2023/08/07 02:42:54;;;;;;;4.20;3.43;;;;;;;;;;5096088;28;20449;-69
2023/08/07 02:45:21;;;;;;;6.07;3.43;;;;;;;;;;5096184;28;20944;-69
2023/08/07 02:47:49;;;;;;;4.93;3.97;;;;;;;;;;5096052;28;20803;-69
2023/08/07 02:50:16;;;;;;;3.30;3.10;;;;;;;;;;5095966;28;20554;-69
2023/08/07 02:52:43;;;;;;;5.07;3.57;;;;;;;;;;5095796;28;20885;-69
2023/08/07 02:55:10;;;;;;;5.17;3.20;;;;;;;;;;5095856;28;20551;-69
2023/08/07 02:57:37;;;;;;;3.90;3.60;;;;;;;;;;5095948;28;20481;-69
2023/08/07 03:00:04;;;;;;;3.53;3.23;;;;;;;;;;5095839;28;20445;-69
2023/08/07 03:02:31;;;;;;;6.13;3.40;;;;;;;;;;5095725;28;20456;-69
2023/08/07 03:04:59;;;;;;;3.47;3.20;;;;;;;;;;5095524;28;20592;-69
2023/08/07 03:07:26;;;;;;;4.73;3.67;;;;;;;;;;5095490;28;20531;-69
2023/08/07 03:09:53;;;;;;;6.27;3.90;;;;;;;;;;5095879;28;20445;-69
2023/08/07 03:12:21;;;;;;;4.77;3.67;;;;;;;;;;5095515;28;20460;-69
2023/08/07 03:14:48;;;;;;;3.40;3.10;;;;;;;;;;5095719;28;20465;-69
2023/08/07 03:17:15;;;;;;;6.23;3.60;;;;;;;;;;5095364;28;20446;-69
2023/08/07 03:19:43;;;;;;;3.40;3.10;;;;;;;;;;5095311;28;20441;-69
2023/08/07 03:22:11;;;;;;;5.30;4.40;;;;;;;;;;5095452;28;20532;-69
2023/08/07 03:24:38;;;;;;;4.23;3.83;;;;;;;;;;5095271;28;20491;-69
2023/08/07 03:27:05;;;;;;;4.67;4.20;;;;;;;;;;5095532;28;21036;-69
2023/08/07 03:29:32;;;;;;;4.50;4.13;;;;;;;;;;5095294;28;20448;-69
2023/08/07 03:31:59;;;;;;;5.07;4.00;;;;;;;;;;5095100;28;20532;-69
2023/08/07 03:34:26;;;;;;;4.43;4.03;;;;;;;;;;5094897;28;20536;-69
2023/08/07 03:36:53;;;;;;;4.47;4.03;;;;;;;;;;5095160;28;21051;-69
2023/08/07 03:39:21;;;;;;;4.27;3.60;;;;;;;;;;5095106;28;20472;-69
2023/08/07 03:41:48;;;;;;;4.33;3.57;;;;;;;;;;5094960;28;20449;-69
2023/08/07 03:44:15;;;;;;;7.37;4.47;;;;;;;;;;5094790;28;20480;-69
2023/08/07 03:46:42;;;;;;;4.87;3.77;;;;;;;;;;5094726;28;20442;-69
2023/08/07 03:49:09;;;;;;;5.13;4.63;;;;;;;;;;5094645;28;21031;-69
2023/08/07 03:51:36;;;;;;;4.00;3.60;;;;;;;;;;5094016;28;20536;-69
2023/08/07 03:54:02;;;;;;;4.70;4.00;;;;;;;;;;5094810;28;20957;-69
2023/08/07 03:56:35;;;;;;;4.30;3.90;;;;;;;;;;5094461;28;20480;-69
2023/08/07 03:59:02;;;;;;;3.93;3.63;;;;;;;;;;5094616;28;20449;-69
2023/08/07 04:01:29;;;;;;;4.13;3.70;;;;;;;;;;5094342;28;20440;-69
2023/08/07 04:03:56;;;;;;;4.50;4.20;;;;;;;;;;5094507;28;20813;-69
2023/08/07 04:06:23;;;;;;;5.00;4.50;;;;;;;;;;5094479;28;20531;-69
2023/08/07 04:08:51;;;;;;;4.27;3.80;;;;;;;;;;5094255;28;20792;-69
2023/08/07 04:11:18;;;;;;;4.70;4.30;;;;;;;;;;5094314;28;20536;-69
2023/08/07 04:13:46;;;;;;;4.80;4.30;;;;;;;;;;5094258;28;20452;-69
2023/08/07 04:16:13;;;;;;;4.40;4.10;;;;;;;;;;5094129;28;20540;-69
2023/08/07 04:18:40;;;;;;;5.53;3.63;;;;;;;;;;5094328;28;20524;-69
2023/08/07 04:21:06;;;;;;;4.27;3.87;;;;;;;;;;5094263;28;20823;-69
2023/08/07 04:23:33;;;;;;;5.37;4.27;;;;;;;;;;5094078;28;20480;-69
2023/08/07 04:26:01;;;;;;;5.00;4.40;;;;;;;;;;5094024;28;20862;-69
2023/08/07 04:28:29;;;;;;;5.13;4.10;;;;;;;;;;5093902;28;20830;-69
2023/08/07 04:30:57;;;;;;;4.20;3.80;;;;;;;;;;5094088;28;20448;-69
2023/08/07 04:33:24;;;;;;;4.57;4.17;;;;;;;;;;5094067;28;20475;-69
2023/08/07 04:35:51;;;;;;;5.50;4.13;;;;;;;;;;5093968;28;20531;-69
2023/08/07 04:38:18;;;;;;;5.57;5.10;;;;;;;;;;5093838;28;20441;-69
2023/08/07 04:40:46;;;;;;;4.60;4.20;;;;;;;;;;5093645;28;21000;-69
2023/08/07 04:43:13;;;;;;;4.90;4.50;;;;;;;;;;5093590;28;20931;-69
2023/08/07 04:45:40;;;;;;;4.10;3.80;;;;;;;;;;5093763;28;20982;-69
2023/08/07 04:48:11;;;;;;;4.30;3.90;;;;;;;;;;5093803;28;20445;-69
2023/08/07 04:50:38;;;;;;;3.57;3.27;;;;;;;;;;5093762;28;20868;-69
2023/08/07 04:53:05;;;;;;;5.43;3.70;;;;;;;;;;5093576;28;20443;-69
2023/08/07 04:55:32;;;;;;;5.20;4.50;;;;;;;;;;5093288;28;20555;-69
2023/08/07 04:57:59;;;;;;;4.23;3.50;;;;;;;;;;5093629;28;20459;-69
2023/08/07 05:00:26;;;;;;;4.00;3.60;;;;;;;;;;5093610;28;20451;-69
2023/08/07 05:02:53;;;;;;;5.97;3.67;;;;;;;;;;5092711;28;20541;-69
2023/08/07 05:05:23;;;;;;;3.97;3.60;;;;;;;;;;5093046;28;20999;-69
2023/08/07 05:07:50;;;;;;;3.87;3.57;;;;;;;;;;5093275;28;20453;-69
2023/08/07 05:10:17;;;;;;;3.10;2.90;;;;;;;;;;5093172;28;20943;-69
2023/08/07 05:12:43;;;;;;;5.17;3.40;;;;;;;;;;5093395;28;20456;-69
2023/08/07 05:15:11;;;;;;;4.53;3.23;;;;;;;;;;5093581;28;20542;-69
2023/08/07 05:17:37;;;;;;;5.07;4.10;;;;;;;;;;5093280;28;20536;-69
2023/08/07 05:20:05;;;;;;;7.10;3.40;;;;;;;;;;5093167;28;20451;-69
2023/08/07 05:22:33;;;;;;;4.40;3.50;;;;;;;;;;5093020;28;20441;-69
2023/08/07 05:25:01;;;;;;;3.97;3.27;;;;;;;;;;5093241;28;21006;-69
2023/08/07 05:27:29;;;;;;;4.70;3.03;;;;;;;;;;5093197;28;20539;-69
2023/08/07 05:29:56;;;;;;;3.53;3.17;;;;;;;;;;5093221;28;20538;-68
2023/08/07 05:32:23;;;;;;;3.60;3.30;;;;;;;;;;5093049;28;20808;-69
2023/08/07 05:34:51;;;;;;;3.10;2.90;;;;;;;;;;5093013;28;20444;-69
2023/08/07 05:37:20;;;;;;;2.90;2.70;;;;;;;;;;5092626;28;20943;-69
2023/08/07 05:39:48;;;;;;;4.03;3.00;;;;;;;;;;5093065;28;20538;-69
2023/08/07 05:42:15;;;;;;;6.10;2.60;;;;;;;;;;5093080;28;20449;-69
2023/08/07 05:44:42;;;;;;;3.00;2.80;;;;;;;;;;5092860;28;20507;-69
2023/08/07 05:47:09;;;;;;;2.97;2.77;;;;;;;;;;5092792;28;20535;-69
2023/08/07 05:49:35;;;;;;;3.23;3.03;;;;;;;;;;5092704;28;20537;-68
2023/08/07 05:52:02;;;;;;;3.70;2.47;;;;;;;;;;5092976;28;20537;-68
2023/08/07 05:54:29;;;;;;;4.07;2.90;;;;;;;;;;5092658;28;20452;-68
2023/08/07 05:56:57;;;;;;;3.23;3.03;;;;;;;;;;5093133;28;20445;-69
2023/08/07 05:59:24;;;;;;;3.00;2.80;;;;;;;;;;5092674;28;20449;-69
2023/08/07 06:01:51;;;;;;;2.77;2.60;;;;;;;;;;5092503;28;20449;-69
2023/08/07 06:04:18;;;;;;;3.20;2.87;;;;;;;;;;5092477;28;20483;-68
2023/08/07 06:06:45;;;;;;;3.43;3.03;;;;;;;;;;5092804;28;20844;-69
2023/08/07 06:09:14;;;;;;;3.93;3.00;;;;;;;;;;5092772;28;20947;-68
2023/08/07 06:11:41;;;;;;;3.00;2.80;;;;;;;;;;5092653;28;20448;-69
2023/08/07 06:14:09;;;;;;;3.00;2.80;;;;;;;;;;5092833;28;20979;-68
2023/08/07 06:16:36;;;;;;;11.33;2.90;;;;;;;;;;5099688;28;21027;-68
2023/08/07 06:19:04;;;;;;;2.30;2.10;;;;;;;;;;5096341;28;20539;-68
2023/08/07 06:21:30;;;;;;;3.63;3.33;;;;;;;;;;5096359;28;20536;-69
2023/08/07 06:23:59;;;;;;;3.10;2.90;;;;;;;;;;5099458;28;20920;-68
2023/08/07 06:26:26;;;;;;;3.07;2.80;;;;;;;;;;5116629;28;20479;-68
2023/08/07 06:28:53;;;;;;;2.20;2.00;;;;;;;;;;5102733;28;20463;-68
2023/08/07 06:31:21;;;;;;;2.60;2.40;;;;;;;;;;5096005;28;20521;-68
2023/08/07 06:33:48;;;;;;;2.77;2.53;;;;;;;;;;5096323;28;20441;-68
2023/08/07 06:36:15;;;;;;;3.10;2.40;;;;;;;;;;5100241;28;20880;-68
2023/08/07 06:38:42;;;;;;;3.20;2.53;;;;;;;;;;5116466;28;20536;-68
2023/08/07 06:41:09;;;;;;;2.70;2.43;;;;;;;;;;5116401;28;20439;-68
2023/08/07 06:43:36;;;;;;;2.70;2.50;;;;;;;;;;5116313;28;21030;-68
2023/08/07 06:46:03;;;;;;;2.90;2.20;;;;;;;;;;5116128;28;20579;-68
2023/08/07 06:48:31;;;;;;;2.47;2.30;;;;;;;;;;5116451;28;20535;-70
2023/08/07 06:50:59;;;;;;;7.83;2.70;;;;;;;;;;5116285;28;20476;-69
2023/08/07 06:53:26;;;;;;;2.90;2.70;;;;;;;;;;5116238;28;20506;-68
2023/08/07 06:55:53;;;;;;;4.30;2.13;;;;;;;;;;5115968;28;20568;-68
2023/08/07 06:58:20;;;;;;;2.77;2.57;;;;;;;;;;5115724;28;20449;-68
2023/08/07 07:00:47;;;;;;;2.50;2.27;;;;;;;;;;5116081;28;20543;-68
2023/08/07 07:03:14;;;;;;;3.30;3.00;;;;;;;;;;5115867;28;20544;-63
2023/08/07 07:05:42;;;;;;;2.63;2.10;;;;;;;;;;5115750;28;20486;-64
2023/08/07 07:08:09;;;;;;;2.33;2.17;;;;;;;;;;5115894;28;20455;-67
2023/08/07 07:10:36;;;;;;;2.50;1.80;;;;;;;;;;5115792;28;20487;-65
2023/08/07 07:13:03;;;;;;;2.13;1.90;;;;;;;;;;5116258;28;20495;-67
2023/08/07 07:15:30;;;;;;;4.40;2.07;;;;;;;;;;5115518;28;20540;-63
2023/08/07 07:17:59;;;;;;;2.47;2.27;;;;;;;;;;5115645;28;20531;-65
2023/08/07 07:20:27;;;;;;;2.70;1.87;;;;;;;;;;5115450;28;20803;-64
2023/08/07 07:22:55;;;;;;;3.30;1.93;;;;;;;;;;5115779;28;20459;-64
2023/08/07 07:25:22;;;;;;;1.70;1.60;;;;;;;;;;5115246;28;20480;-63
2023/08/07 07:27:49;;;;;;;2.10;2.00;;;;;;;;;;5114292;28;20542;-64
2023/08/07 07:30:16;;;;;;;1.90;1.70;;;;;;;;;;5115449;28;20880;-63
2023/08/07 07:32:43;;;;;;;3.97;1.70;;;;;;;;;;5115364;28;20533;-63
2023/08/07 07:35:10;;;;;;;1.73;1.40;;;;;;;;;;5115529;28;20485;-62
2023/08/07 07:37:37;;;;;;;2.80;1.50;;;;;;;;;;5115454;28;20484;-64
2023/08/07 07:40:05;;;;;;;3.33;1.87;;;;;;;;;;5115256;28;20869;-65
2023/08/07 07:42:32;;;;;;;2.30;1.97;;;;;;;;;;5115290;28;20483;-65
2023/08/07 07:44:59;;;;;;;2.50;1.50;;;;;;;;;;5115294;28;20473;-65
2023/08/07 07:47:26;;;;;;;1.77;1.50;;;;;;;;;;5115088;28;20853;-63
2023/08/07 07:50:05;;;;;;;3.20;1.80;;;;;;;;;;5115094;28;20452;-65
2023/08/07 07:52:32;;;;;;;2.23;1.70;;;;;;;;;;5114875;28;20533;-65
2023/08/07 07:54:59;;;;;;;2.33;1.57;;;;;;;;;;5114575;28;20563;-67
2023/08/07 07:57:27;;;;;;;1.50;1.40;;;;;;;;;;5114985;28;20503;-63
2023/08/07 07:59:54;;;;;;;2.67;1.63;;;;;;;;;;5095273;28;20532;-63
2023/08/07 08:02:21;;;;;;;4.17;1.63;;;;;;;;;;5094498;28;20449;-65
2023/08/07 08:04:48;;;;;;;4.70;2.70;;;;;;;;;;5094153;28;20878;-67
2023/08/07 08:07:15;;;;;;;5.20;1.70;;;;;;;;;;5094673;28;20482;-68
2023/08/07 08:09:42;;;;;;;1.60;1.50;;;;;;;;;;5094405;28;20949;-65
2023/08/07 08:12:09;;;;;;;1.53;1.43;;;;;;;;;;5094486;28;20454;-68
2023/08/07 08:14:38;;;;;;;8.00;2.60;;;;;;;;;;5094294;28;20485;-69
2023/08/07 08:17:05;;;;;;;7.90;1.80;;;;;;;;;;5094122;28;20446;-66
2023/08/07 08:19:32;;;;;;;2.80;1.40;;;;;;;;;;5094182;28;20538;-74
2023/08/07 08:21:58;;;;;;;3.30;1.80;;;;;;;;;;5093864;28;20439;-68
2023/08/07 08:24:25;;;;;;;4.27;2.00;;;;;;;;;;5094145;28;20532;-70
2023/08/07 08:26:54;;;;;;;1.57;1.40;;;;;;;;;;5093777;28;20482;-70
2023/08/07 08:29:21;;;;;;;3.77;1.70;;;;;;;;;;5093893;28;20444;-66
2023/08/07 08:31:51;;;;;;;2.00;1.67;;;;;;;;;;5093712;28;20952;-66
2023/08/07 08:34:18;;;;;;;3.00;1.30;;;;;;;;;;5093638;28;20462;-67
2023/08/07 08:36:44;;;;;;;2.07;1.60;;;;;;;;;;5093812;28;20540;-70
2023/08/07 08:39:11;;;;;;;2.80;2.00;;;;;;;;;;5093484;28;20457;-66
2023/08/07 08:41:38;;;;;;;1.97;1.87;;;;;;;;;;5093678;28;20895;-73
2023/08/07 08:44:07;;;;;;;1.90;1.80;;;;;;;;;;5093858;28;20557;-61
2023/08/07 08:46:35;;;;;;;2.60;1.80;;;;;;;;;;5093479;28;20500;-63
2023/08/07 08:49:04;;;;;;;2.07;1.67;;;;;;;;;;5093277;28;20894;-64
2023/08/07 08:51:31;;;;;;;2.53;1.60;;;;;;;;;;5093459;28;20453;-67
2023/08/07 08:53:58;;;;;;;2.20;1.73;;;;;;;;;;5093611;28;20445;-67
2023/08/07 08:56:25;;;;;;;2.53;1.83;;;;;;;;;;5093427;28;20478;-66
2023/08/07 08:58:53;;;;;;;2.20;2.00;;;;;;;;;;5093277;28;20532;-64
2023/08/07 09:01:20;;;;;;;1.97;1.87;;;;;;;;;;5093146;28;20938;-73
2023/08/07 09:03:47;;;;;;;5.97;1.90;;;;;;;;;;5093050;28;20948;-66
2023/08/07 09:06:16;;;;;;;4.47;2.03;;;;;;;;;;5092967;28;20573;-70
2023/08/07 09:08:44;;;;;;;2.37;1.80;;;;;;;;;;5093106;28;20544;-70
2023/08/07 09:11:11;;;;;;;1.80;1.70;;;;;;;;;;5093149;28;20482;-69
2023/08/07 09:13:39;;;;;;;1.90;1.77;;;;;;;;;;5092854;28;20457;-67
2023/08/07 09:16:08;;;;;;;1.90;1.80;;;;;;;;;;5092804;28;20460;-67
2023/08/07 09:18:35;;;;;;;2.27;2.00;;;;;;;;;;5093115;28;20541;-73
2023/08/07 09:21:02;;;;;;;2.40;1.90;;;;;;;;;;5093024;28;20456;-72
2023/08/07 09:23:30;;;;;;;7.53;2.40;;;;;;;;;;5092954;28;20809;-65
2023/08/07 09:26:01;;;;;;;2.90;1.80;;;;;;;;;;5092988;28;20466;-75
2023/08/07 09:28:29;;;;;;;2.47;2.07;;;;;;;;;;5092757;28;20469;-65
2023/08/07 09:30:56;;;;;;;2.00;1.90;;;;;;;;;;5092564;28;20456;-77
2023/08/07 09:33:26;;;;;;;2.10;2.00;;;;;;;;;;5092942;28;20935;-65
2023/08/07 09:35:53;;;;;;;2.27;2.10;;;;;;;;;;5092803;28;20534;-75
2023/08/07 09:38:23;;;;;;;6.90;2.47;;;;;;;;;;5092689;28;20896;-69
2023/08/07 09:40:52;;;;;;;3.80;2.80;;;;;;;;;;5091602;28;20451;-66
2023/08/07 09:43:22;;;;;;;2.30;2.10;;;;;;;;;;5092555;28;20286;-72
2023/08/07 09:45:51;;;;;;;3.00;2.50;;;;;;;;;;5092806;28;20487;-61
2023/08/07 09:48:23;;;;;;;3.93;2.73;;;;;;;;;;5092725;28;20452;-61
2023/08/07 09:50:52;;;;;;;3.07;2.77;;;;;;;;;;5095768;28;20481;-63
2023/08/07 09:53:19;;;;;;;4.63;2.20;;;;;;;;;;5096669;28;20455;-69
2023/08/07 09:55:46;;;;;;;2.50;2.30;;;;;;;;;;5096519;28;20477;-69
2023/08/07 09:58:14;;;;;;;2.80;2.13;;;;;;;;;;5096863;28;20456;-77
2023/08/07 10:00:42;;;;;;;2.70;2.47;;;;;;;;;;5096837;28;20537;-63
2023/08/07 10:03:09;;;;;;;2.90;2.10;;;;;;;;;;5096413;28;20447;-64
2023/08/07 10:05:36;;;;;;;3.57;3.27;;;;;;;;;;5096620;28;20569;-64
2023/08/07 10:08:04;;;;;;;7.93;2.13;;;;;;;;;;5096411;28;20537;-64
